createdAt,value
2023-03-05T00:00:27.564Z,58.73
2023-03-05T00:01:27.543Z,63.91
2023-03-05T00:02:27.593Z,64.63
2023-03-05T00:03:27.651Z,62.95
2023-03-05T00:04:27.491Z,56.84
2023-03-05T00:05:27.581Z,51.78
2023-03-05T00:06:27.457Z,55.01
2023-03-05T00:07:27.525Z,59.03
2023-03-05T00:08:27.457Z,61.86
2023-03-05T00:09:27.412Z,60.84
2023-03-05T00:10:27.410Z,55.83
2023-03-05T00:11:27.401Z,59.25
2023-03-05T00:12:27.437Z,59.95
2023-03-05T00:13:27.402Z,63.52
2023-03-05T00:14:27.452Z,61.91
2023-03-05T00:15:27.375Z,65.17
2023-03-05T00:16:27.525Z,63.79
2023-03-05T00:17:27.381Z,63.88
2023-03-05T00:18:27.339Z,61.89
2023-03-05T00:19:27.391Z,55.13
2023-03-05T00:20:27.365Z,58.61
2023-03-05T00:21:27.300Z,62.06
2023-03-05T00:22:27.327Z,59.41
2023-03-05T00:23:27.265Z,62.36
2023-03-05T00:24:27.270Z,64.51
2023-03-05T00:25:27.246Z,60.67
2023-03-05T00:26:27.309Z,57.83
2023-03-05T00:27:27.243Z,55.87
2023-03-05T00:28:27.285Z,62.33
2023-03-05T00:29:27.432Z,64.31
2023-03-05T00:30:27.260Z,54.22
2023-03-05T00:31:27.201Z,52.64
2023-03-05T00:32:27.273Z,59.29
2023-03-05T00:33:28.056Z,55.31
2023-03-05T00:34:27.174Z,46.03
2023-03-05T00:35:27.257Z,60.39
2023-03-05T00:36:27.178Z,58.64
2023-03-05T00:37:27.197Z,65.04
2023-03-05T00:38:28.174Z,63.65
2023-03-05T00:39:28.152Z,49.82
2023-03-05T00:40:27.158Z,60.58
2023-03-05T00:41:27.096Z,62.59
2023-03-05T00:42:27.134Z,64.24
2023-03-05T00:43:27.364Z,63.08
2023-03-05T00:44:27.109Z,56.80
2023-03-05T00:45:27.085Z,61.16
2023-03-05T00:46:27.078Z,62.80
2023-03-05T00:47:27.226Z,63.96
2023-03-05T00:48:27.043Z,47.48
2023-03-05T00:49:27.023Z,60.11
2023-03-05T00:50:26.993Z,59.77
2023-03-05T00:51:27.046Z,61.82
2023-03-05T00:52:27.004Z,48.36
2023-03-05T00:53:27.127Z,58.68
2023-03-05T00:54:27.014Z,58.41
2023-03-05T00:55:26.981Z,65.71
2023-03-05T00:56:26.956Z,64.71
2023-03-05T00:57:27.102Z,59.01
2023-03-05T00:58:26.916Z,57.15
2023-03-05T00:59:27.067Z,62.20
2023-03-05T01:00:26.923Z,60.29
2023-03-05T01:01:26.936Z,54.78
2023-03-05T01:02:26.879Z,62.57
2023-03-05T01:03:26.901Z,62.56
2023-03-05T01:04:26.912Z,54.28
2023-03-05T01:05:26.883Z,62.62
2023-03-05T01:06:26.795Z,50.43
2023-03-05T01:07:26.870Z,61.57
2023-03-05T01:08:26.788Z,54.32
2023-03-05T01:09:26.781Z,56.13
2023-03-05T01:10:26.831Z,56.06
2023-03-05T01:11:26.777Z,56.14
2023-03-05T01:12:26.775Z,57.73
2023-03-05T01:13:26.804Z,57.41
2023-03-05T01:14:26.777Z,60.09
2023-03-05T01:15:26.677Z,64.08
2023-03-05T01:16:26.736Z,60.68
2023-03-05T01:17:26.727Z,53.57
2023-03-05T01:18:26.678Z,64.93
2023-03-05T01:19:26.647Z,45.92
2023-03-05T01:20:26.677Z,55.20
2023-03-05T01:21:26.664Z,62.19
2023-03-05T01:22:26.636Z,61.25
2023-03-05T01:23:26.646Z,67.33
2023-03-05T01:24:26.633Z,58.47
2023-03-05T01:25:26.604Z,58.29
2023-03-05T01:26:26.620Z,55.66
2023-03-05T01:27:26.571Z,54.19
2023-03-05T01:28:26.511Z,55.77
2023-03-05T01:29:26.611Z,48.61
2023-03-05T01:30:26.623Z,47.79
2023-03-05T01:31:26.569Z,63.20
2023-03-05T01:32:26.544Z,57.33
2023-03-05T01:33:26.554Z,56.26
2023-03-05T01:34:26.516Z,55.71
2023-03-05T01:35:26.599Z,56.29
2023-03-05T01:36:26.487Z,61.75
2023-03-05T01:37:26.504Z,46.34
2023-03-05T01:38:26.468Z,60.62
2023-03-05T01:39:26.454Z,56.26
2023-03-05T01:40:26.469Z,61.26
2023-03-05T01:41:26.436Z,54.18
2023-03-05T01:42:26.431Z,51.45
2023-03-05T01:43:26.445Z,59.04
2023-03-05T01:44:26.393Z,60.41
2023-03-05T01:45:26.420Z,56.22
2023-03-05T01:46:26.450Z,64.54
2023-03-05T01:47:26.433Z,53.82
2023-03-05T01:48:26.439Z,57.90
2023-03-05T01:49:26.374Z,63.04
2023-03-05T01:50:26.355Z,54.80
2023-03-05T01:51:26.375Z,47.25
2023-03-05T01:52:26.374Z,57.07
2023-03-05T01:53:26.307Z,62.40
2023-03-05T01:54:26.312Z,56.07
2023-03-05T01:55:26.261Z,53.21
2023-03-05T01:56:26.237Z,58.58
2023-03-05T01:57:26.301Z,51.47
2023-03-05T01:58:26.276Z,53.97
2023-03-05T01:59:26.240Z,59.21
2023-03-05T02:00:26.201Z,61.55
2023-03-05T02:01:26.306Z,50.49
2023-03-05T02:02:26.180Z,61.95
2023-03-05T02:03:26.279Z,58.03
2023-03-05T02:04:26.182Z,60.48
2023-03-05T02:05:27.143Z,62.65
2023-03-05T02:06:26.172Z,52.82
2023-03-05T02:07:26.148Z,49.11
2023-03-05T02:08:26.160Z,56.76
2023-03-05T02:09:26.086Z,61.82
2023-03-05T02:10:26.140Z,44.16
2023-03-05T02:11:26.140Z,42.45
2023-03-05T02:12:26.101Z,52.69
2023-03-05T02:13:26.076Z,64.11
2023-03-05T02:14:26.110Z,47.51
2023-03-05T02:15:26.064Z,58.08
2023-03-05T02:16:26.096Z,60.82
2023-03-05T02:17:26.039Z,57.63
2023-03-05T02:18:25.997Z,60.28
2023-03-05T02:19:25.983Z,49.49
2023-03-05T02:20:26.002Z,57.75
2023-03-05T02:21:25.981Z,53.01
2023-03-05T02:22:25.995Z,54.43
2023-03-05T02:23:25.980Z,44.03
2023-03-05T02:24:25.981Z,55.30
2023-03-05T02:25:25.953Z,65.06
2023-03-05T02:26:25.928Z,57.11
2023-03-05T02:27:25.947Z,60.63
2023-03-05T02:28:25.918Z,53.88
2023-03-05T02:29:25.858Z,67.21
2023-03-05T02:30:25.939Z,63.22
2023-03-05T02:31:25.978Z,56.30
2023-03-05T02:32:25.850Z,66.35
2023-03-05T02:33:25.850Z,53.06
2023-03-05T02:34:25.868Z,65.65
2023-03-05T02:35:25.842Z,62.15
2023-03-05T02:36:25.869Z,58.43
2023-03-05T02:37:25.844Z,57.87
2023-03-05T02:38:25.828Z,54.70
2023-03-05T02:39:25.760Z,44.65
2023-03-05T02:40:25.765Z,57.92
2023-03-05T02:41:25.805Z,67.17
2023-03-05T02:42:25.744Z,61.31
2023-03-05T02:43:25.708Z,64.58
2023-03-05T02:44:25.723Z,53.10
2023-03-05T02:45:25.700Z,53.97
2023-03-05T02:46:25.711Z,63.86
2023-03-05T02:47:25.754Z,60.28
2023-03-05T02:48:25.686Z,45.36
2023-03-05T02:49:25.646Z,57.76
2023-03-05T02:50:25.656Z,55.10
2023-03-05T02:51:25.686Z,62.74
2023-03-05T02:52:25.672Z,53.39
2023-03-05T02:53:25.653Z,56.87
2023-03-05T02:54:25.610Z,43.43
2023-03-05T02:55:25.586Z,54.11
2023-03-05T02:56:25.597Z,56.50
2023-03-05T02:57:25.565Z,47.63
2023-03-05T02:58:25.624Z,56.78
2023-03-05T02:59:25.709Z,64.28
2023-03-05T03:00:25.556Z,60.73
2023-03-05T03:01:25.594Z,46.60
2023-03-05T03:02:25.555Z,44.49
2023-03-05T03:03:25.610Z,59.65
2023-03-05T03:04:25.462Z,50.64
2023-03-05T03:05:26.494Z,62.66
2023-03-05T03:06:25.552Z,57.18
2023-03-05T03:07:25.448Z,58.12
2023-03-05T03:08:25.462Z,52.83
2023-03-05T03:09:25.455Z,49.10
2023-03-05T03:10:25.442Z,53.38
2023-03-05T03:11:25.410Z,56.28
2023-03-05T03:12:25.443Z,67.42
2023-03-05T03:13:25.508Z,66.14
2023-03-05T03:14:25.433Z,51.02
2023-03-05T03:15:25.410Z,53.86
2023-03-05T03:16:25.412Z,59.65
2023-03-05T03:17:25.371Z,58.65
2023-03-05T03:18:25.373Z,49.22
2023-03-05T03:19:26.005Z,52.78
2023-03-05T03:20:25.370Z,58.06
2023-03-05T03:21:25.405Z,64.41
2023-03-05T03:22:25.325Z,54.53
2023-03-05T03:23:25.302Z,62.78
2023-03-05T03:24:25.322Z,61.70
2023-03-05T03:25:25.278Z,55.42
2023-03-05T03:26:25.291Z,62.04
2023-03-05T03:27:25.248Z,63.05
2023-03-05T03:28:25.290Z,57.19
2023-03-05T03:29:25.219Z,58.91
2023-03-05T03:30:25.243Z,62.17
2023-03-05T03:31:25.288Z,54.59
2023-03-05T03:32:25.282Z,45.55
2023-03-05T03:33:25.256Z,61.77
2023-03-05T03:34:25.138Z,64.65
2023-03-05T03:35:25.295Z,64.39
2023-03-05T03:36:25.148Z,52.36
2023-03-05T03:37:25.150Z,49.55
2023-03-05T03:38:25.150Z,58.88
2023-03-05T03:39:25.121Z,48.04
2023-03-05T03:40:25.144Z,59.67
2023-03-05T03:41:26.140Z,58.28
2023-03-05T03:42:25.090Z,61.33
2023-03-05T03:43:25.080Z,45.22
2023-03-05T03:44:25.120Z,53.03
2023-03-05T03:45:25.075Z,44.94
2023-03-05T03:46:26.096Z,55.31
2023-03-05T03:47:25.033Z,64.35
2023-03-05T03:48:25.046Z,61.01
2023-03-05T03:49:24.985Z,66.01
2023-03-05T03:50:25.066Z,55.08
2023-03-05T03:51:25.039Z,62.74
2023-03-05T03:52:25.017Z,64.44
2023-03-05T03:53:24.973Z,46.06
2023-03-05T03:54:24.958Z,52.35
2023-03-05T03:55:24.997Z,56.12
2023-03-05T03:56:24.913Z,58.08
2023-03-05T03:57:24.955Z,62.69
2023-03-05T03:58:24.930Z,63.47
2023-03-05T03:59:24.925Z,58.32
2023-03-05T04:00:24.924Z,44.70
2023-03-05T04:01:24.854Z,58.41
2023-03-05T04:02:24.925Z,55.45
2023-03-05T04:03:24.889Z,45.25
2023-03-05T04:04:24.885Z,63.00
2023-03-05T04:05:24.828Z,54.28
2023-03-05T04:06:24.973Z,60.85
2023-03-05T04:07:24.821Z,46.91
2023-03-05T04:08:24.790Z,47.13
2023-03-05T04:09:24.795Z,60.86
2023-03-05T04:10:24.844Z,61.92
2023-03-05T04:11:24.755Z,57.62
2023-03-05T04:12:24.758Z,63.26
2023-03-05T04:13:24.799Z,65.72
2023-03-05T04:14:24.708Z,58.46
2023-03-05T04:15:24.703Z,44.36
2023-03-05T04:16:24.749Z,60.00
2023-03-05T04:17:24.694Z,54.12
2023-03-05T04:18:24.680Z,55.66
2023-03-05T04:19:24.699Z,59.34
2023-03-05T04:20:24.778Z,56.47
2023-03-05T04:21:24.743Z,59.89
2023-03-05T04:22:24.665Z,56.78
2023-03-05T04:23:24.674Z,64.50
2023-03-05T04:24:24.653Z,55.65
2023-03-05T04:25:24.648Z,55.49
2023-03-05T04:26:24.609Z,58.41
2023-03-05T04:27:24.579Z,57.77
2023-03-05T04:28:24.620Z,53.89
2023-03-05T04:29:24.782Z,44.61
2023-03-05T04:30:24.619Z,63.69
2023-03-05T04:31:24.616Z,45.73
2023-03-05T04:32:24.574Z,47.11
2023-03-05T04:33:24.592Z,65.98
2023-03-05T04:34:24.501Z,61.82
2023-03-05T04:35:24.548Z,55.58
2023-03-05T04:36:24.530Z,63.78
2023-03-05T04:37:24.487Z,66.14
2023-03-05T04:38:24.530Z,63.91
2023-03-05T04:39:24.449Z,66.63
2023-03-05T04:40:24.452Z,52.85
2023-03-05T04:41:24.451Z,59.59
2023-03-05T04:42:24.416Z,66.27
2023-03-05T04:43:24.416Z,65.20
2023-03-05T04:44:24.491Z,63.45
2023-03-05T04:45:24.382Z,60.92
2023-03-05T04:46:24.480Z,61.38
2023-03-05T04:47:24.401Z,65.81
2023-03-05T04:48:24.393Z,60.23
2023-03-05T04:49:24.360Z,63.37
2023-03-05T04:50:24.405Z,61.23
2023-03-05T04:51:24.323Z,64.08
2023-03-05T04:52:24.314Z,59.64
2023-03-05T04:53:25.022Z,65.02
2023-03-05T04:54:24.293Z,62.91
2023-03-05T04:55:24.353Z,61.35
2023-03-05T04:56:24.330Z,66.36
2023-03-05T04:57:24.272Z,50.76
2023-03-05T04:58:24.279Z,63.56
2023-03-05T04:59:24.248Z,60.82
2023-03-05T05:00:24.238Z,64.80
2023-03-05T05:01:24.283Z,61.50
2023-03-05T05:02:24.180Z,62.86
2023-03-05T05:03:24.193Z,62.45
2023-03-05T05:04:24.170Z,65.29
2023-03-05T05:05:24.262Z,65.06
2023-03-05T05:06:24.183Z,66.23
2023-03-05T05:07:24.347Z,65.79
2023-03-05T05:08:24.139Z,61.10
2023-03-05T05:09:24.187Z,65.39
2023-03-05T05:10:24.175Z,67.41
2023-03-05T05:11:24.100Z,63.63
2023-03-05T05:12:24.172Z,64.89
2023-03-05T05:13:24.175Z,64.68
2023-03-05T05:14:24.072Z,65.76
2023-03-05T05:15:24.065Z,64.44
2023-03-05T05:16:24.127Z,62.67
2023-03-05T05:17:24.060Z,59.75
2023-03-05T05:18:24.037Z,58.32
2023-03-05T05:19:24.086Z,67.39
2023-03-05T05:20:24.021Z,57.83
2023-03-05T05:21:24.021Z,66.87
2023-03-05T05:22:24.035Z,65.13
2023-03-05T05:23:24.051Z,70.31
2023-03-05T05:24:23.969Z,66.10
2023-03-05T05:25:24.981Z,64.54
2023-03-05T05:26:23.951Z,62.73
2023-03-05T05:27:23.895Z,62.13
2023-03-05T05:28:23.943Z,62.47
2023-03-05T05:29:23.874Z,70.17
2023-03-05T05:30:23.846Z,66.48
2023-03-05T05:31:23.835Z,62.07
2023-03-05T05:32:24.012Z,60.26
2023-03-05T05:33:23.845Z,64.72
2023-03-05T05:34:23.806Z,67.28
2023-03-05T05:35:23.808Z,69.02
2023-03-05T05:36:24.380Z,64.56
2023-03-05T05:37:23.753Z,60.69
2023-03-05T05:38:23.826Z,65.61
2023-03-05T05:39:23.745Z,60.66
2023-03-05T05:40:24.753Z,60.53
2023-03-05T05:41:23.740Z,60.36
2023-03-05T05:42:23.741Z,65.20
2023-03-05T05:43:23.729Z,68.82
2023-03-05T05:44:23.729Z,62.96
2023-03-05T05:45:23.769Z,54.68
2023-03-05T05:46:23.849Z,67.88
2023-03-05T05:47:23.672Z,63.96
2023-03-05T05:48:23.678Z,64.96
2023-03-05T05:49:23.670Z,64.92
2023-03-05T05:50:23.652Z,66.00
2023-03-05T05:51:24.653Z,52.61
2023-03-05T05:52:23.615Z,65.59
2023-03-05T05:53:23.649Z,67.16
2023-03-05T05:54:23.624Z,64.58
2023-03-05T05:55:23.559Z,60.21
2023-03-05T05:56:23.558Z,64.11
2023-03-05T05:57:23.575Z,61.99
2023-03-05T05:58:23.566Z,63.54
2023-03-05T05:59:23.536Z,61.09
2023-03-05T06:00:23.528Z,63.23
2023-03-05T06:01:23.511Z,60.43
2023-03-05T06:02:23.574Z,62.39
2023-03-05T06:03:23.574Z,51.59
2023-03-05T06:04:23.531Z,52.63
2023-03-05T06:05:23.489Z,54.39
2023-03-05T06:06:23.504Z,64.27
2023-03-05T06:07:23.460Z,60.72
2023-03-05T06:08:23.428Z,69.05
2023-03-05T06:09:23.441Z,64.24
2023-03-05T06:10:23.432Z,69.05
2023-03-05T06:11:23.415Z,61.37
2023-03-05T06:12:23.438Z,64.96
2023-03-05T06:13:23.435Z,64.16
2023-03-05T06:14:23.409Z,51.23
2023-03-05T06:15:23.375Z,49.10
2023-03-05T06:16:23.443Z,63.88
2023-03-05T06:17:30.273Z,62.97
2023-03-05T06:18:25.332Z,65.79
2023-03-05T06:19:23.326Z,62.53
2023-03-05T06:20:23.319Z,58.06
2023-03-05T06:21:23.919Z,68.69
2023-03-05T06:22:23.316Z,69.19
2023-03-05T06:23:23.397Z,65.55
2023-03-05T06:24:23.278Z,62.77
2023-03-05T06:25:23.290Z,64.61
2023-03-05T06:26:23.239Z,61.73
2023-03-05T06:27:23.246Z,65.49
2023-03-05T06:28:23.229Z,59.98
2023-03-05T06:29:23.260Z,59.96
2023-03-05T06:30:23.218Z,57.58
2023-03-05T06:31:23.248Z,64.65
2023-03-05T06:32:23.362Z,61.80
2023-03-05T06:33:23.183Z,57.87
2023-03-05T06:34:23.188Z,60.10
2023-03-05T06:35:23.174Z,63.68
2023-03-05T06:36:24.169Z,66.94
2023-03-05T06:37:23.162Z,68.37
2023-03-05T06:38:23.153Z,68.70
2023-03-05T06:39:23.135Z,61.37
2023-03-05T06:40:23.144Z,65.18
2023-03-05T06:41:23.145Z,61.94
2023-03-05T06:42:23.103Z,63.92
2023-03-05T06:43:23.088Z,58.17
2023-03-05T06:44:23.067Z,66.22
2023-03-05T06:45:23.065Z,65.50
2023-03-05T06:46:23.147Z,64.42
2023-03-05T06:47:23.000Z,61.98
2023-03-05T06:48:23.007Z,49.37
2023-03-05T06:49:23.045Z,69.16
2023-03-05T06:50:22.986Z,68.34
2023-03-05T06:51:22.993Z,67.73
2023-03-05T06:52:22.971Z,66.36
2023-03-05T06:53:23.046Z,69.62
2023-03-05T06:54:23.013Z,66.02
2023-03-05T06:55:22.949Z,58.64
2023-03-05T06:56:22.960Z,64.51
2023-03-05T06:57:22.942Z,62.52
2023-03-05T06:58:22.915Z,66.52
2023-03-05T06:59:22.883Z,61.14
2023-03-05T07:00:22.919Z,60.02
2023-03-05T07:01:23.498Z,66.08
2023-03-05T07:02:22.922Z,63.47
2023-03-05T07:03:22.866Z,66.30
2023-03-05T07:04:22.862Z,64.51
2023-03-05T07:05:22.858Z,66.62
2023-03-05T07:06:22.865Z,63.87
2023-03-05T07:07:22.844Z,59.63
2023-03-05T07:08:22.841Z,66.19
2023-03-05T07:09:22.783Z,66.15
2023-03-05T07:10:22.821Z,61.91
2023-03-05T07:11:22.813Z,62.28
2023-03-05T07:12:22.846Z,66.50
2023-03-05T07:13:22.762Z,64.36
2023-03-05T07:14:22.736Z,60.82
2023-03-05T07:15:22.718Z,67.72
2023-03-05T07:16:22.826Z,66.03
2023-03-05T07:17:22.711Z,64.34
2023-03-05T07:18:22.691Z,61.04
2023-03-05T07:19:22.659Z,65.41
2023-03-05T07:20:22.691Z,65.57
2023-03-05T07:21:22.724Z,68.37
2023-03-05T07:22:22.655Z,65.95
2023-03-05T07:23:22.644Z,65.22
2023-03-05T07:24:22.647Z,61.27
2023-03-05T07:25:22.632Z,67.93
2023-03-05T07:26:22.651Z,69.61
2023-03-05T07:27:22.608Z,66.73
2023-03-05T07:28:22.624Z,65.11
2023-03-05T07:29:22.571Z,65.51
2023-03-05T07:30:22.567Z,67.63
2023-03-05T07:31:22.617Z,68.17
2023-03-05T07:32:22.563Z,69.20
2023-03-05T07:33:22.539Z,70.38
2023-03-05T07:34:22.556Z,68.72
2023-03-05T07:35:22.511Z,65.93
2023-03-05T07:36:22.533Z,65.80
2023-03-05T07:37:22.473Z,63.91
2023-03-05T07:38:22.511Z,68.74
2023-03-05T07:39:22.514Z,69.05
2023-03-05T07:40:22.445Z,67.97
2023-03-05T07:41:22.470Z,68.58
2023-03-05T07:42:22.499Z,69.10
2023-03-05T07:43:22.441Z,69.13
2023-03-05T07:44:22.441Z,64.75
2023-03-05T07:45:22.417Z,64.46
2023-03-05T07:46:22.454Z,65.84
2023-03-05T07:47:22.415Z,68.30
2023-03-05T07:48:22.369Z,65.75
2023-03-05T07:49:22.358Z,70.12
2023-03-05T07:50:22.326Z,65.63
2023-03-05T07:51:22.320Z,68.18
2023-03-05T07:52:22.359Z,66.36
2023-03-05T07:53:22.338Z,68.68
2023-03-05T07:54:22.287Z,68.63
2023-03-05T07:55:22.293Z,68.32
2023-03-05T07:56:22.262Z,67.07
2023-03-05T07:57:22.253Z,67.34
2023-03-05T07:58:22.268Z,69.70
2023-03-05T07:59:23.238Z,69.58
2023-03-05T08:00:22.255Z,68.48
2023-03-05T08:01:22.246Z,69.18
2023-03-05T08:02:22.400Z,69.15
2023-03-05T08:03:22.244Z,71.19
2023-03-05T08:04:22.323Z,68.02
2023-03-05T08:05:22.191Z,70.44
2023-03-05T08:06:22.168Z,68.56
2023-03-05T08:07:22.156Z,69.89
2023-03-05T08:08:22.151Z,69.59
2023-03-05T08:09:22.141Z,68.13
2023-03-05T08:10:22.159Z,69.31
2023-03-05T08:11:22.147Z,69.88
2023-03-05T08:12:22.086Z,70.71
2023-03-05T08:13:22.091Z,68.96
2023-03-05T08:14:22.095Z,68.05
2023-03-05T08:15:23.095Z,68.92
2023-03-05T08:16:22.106Z,71.53
2023-03-05T08:17:23.049Z,69.83
2023-03-05T08:18:22.022Z,69.34
2023-03-05T08:19:21.993Z,66.78
2023-03-05T08:20:22.030Z,71.10
2023-03-05T08:21:21.978Z,71.53
2023-03-05T08:22:21.993Z,71.21
2023-03-05T08:23:21.958Z,69.79
2023-03-05T08:24:22.033Z,70.64
2023-03-05T08:25:21.943Z,70.33
2023-03-05T08:26:21.930Z,68.81
2023-03-05T08:27:21.909Z,67.92
2023-03-05T08:28:21.913Z,71.38
2023-03-05T08:29:21.914Z,71.79
2023-03-05T08:30:21.921Z,69.66
2023-03-05T08:31:22.005Z,70.41
2023-03-05T08:32:21.947Z,66.77
2023-03-05T08:33:21.881Z,70.90
2023-03-05T08:34:21.876Z,65.68
2023-03-05T08:35:21.959Z,68.49
2023-03-05T08:36:21.807Z,73.25
2023-03-05T08:37:21.868Z,72.51
2023-03-05T08:38:21.801Z,70.41
2023-03-05T08:39:21.823Z,71.10
2023-03-05T08:40:21.772Z,72.41
2023-03-05T08:41:21.826Z,71.11
2023-03-05T08:42:21.757Z,71.90
2023-03-05T08:43:21.716Z,70.25
2023-03-05T08:44:21.768Z,68.78
2023-03-05T08:45:21.996Z,70.82
2023-03-05T08:46:21.783Z,69.79
2023-03-05T08:47:21.712Z,70.68
2023-03-05T08:48:21.769Z,68.64
2023-03-05T08:49:21.732Z,72.13
2023-03-05T08:50:21.705Z,68.33
2023-03-05T08:51:21.785Z,70.26
2023-03-05T08:52:21.693Z,66.68
2023-03-05T08:53:21.623Z,70.19
2023-03-05T08:54:22.736Z,73.19
2023-03-05T08:55:21.642Z,71.76
2023-03-05T08:56:21.751Z,68.86
2023-03-05T08:57:21.636Z,72.80
2023-03-05T08:58:21.658Z,70.61
2023-03-05T08:59:21.618Z,70.60
2023-03-05T09:00:21.619Z,69.41
2023-03-05T09:01:21.650Z,71.58
2023-03-05T09:02:21.610Z,73.27
2023-03-05T09:03:21.575Z,70.43
2023-03-05T09:04:21.568Z,67.13
2023-03-05T09:05:21.550Z,70.31
2023-03-05T09:06:21.596Z,69.20
2023-03-05T09:07:21.503Z,71.20
2023-03-05T09:08:21.494Z,70.20
2023-03-05T09:09:21.482Z,70.81
2023-03-05T09:10:21.481Z,71.72
2023-03-05T09:11:21.518Z,71.72
2023-03-05T09:12:21.458Z,68.80
2023-03-05T09:13:21.487Z,70.66
2023-03-05T09:14:21.511Z,71.69
2023-03-05T09:15:21.489Z,70.26
2023-03-05T09:16:21.486Z,69.19
2023-03-05T09:17:21.414Z,70.37
2023-03-05T09:18:21.431Z,71.47
2023-03-05T09:19:21.407Z,70.82
2023-03-05T09:20:21.451Z,70.28
2023-03-05T09:21:21.416Z,72.33
2023-03-05T09:22:21.364Z,71.02
2023-03-05T09:23:21.370Z,70.21
2023-03-05T09:24:21.321Z,67.83
2023-03-05T09:25:21.366Z,70.55
2023-03-05T09:26:21.398Z,71.59
2023-03-05T09:27:21.902Z,69.00
2023-03-05T09:28:21.312Z,72.14
2023-03-05T09:29:21.310Z,70.43
2023-03-05T09:30:22.428Z,70.89
2023-03-05T09:31:21.258Z,70.19
2023-03-05T09:32:21.325Z,69.74
2023-03-05T09:33:21.292Z,70.70
2023-03-05T09:34:21.238Z,67.33
2023-03-05T09:35:21.231Z,69.24
2023-03-05T09:36:21.205Z,71.02
2023-03-05T09:37:21.230Z,70.28
2023-03-05T09:38:21.175Z,69.85
2023-03-05T09:39:21.169Z,69.77
2023-03-05T09:40:21.143Z,69.88
2023-03-05T09:41:21.136Z,70.50
2023-03-05T09:42:21.190Z,70.26
2023-03-05T09:43:21.114Z,68.71
2023-03-05T09:44:21.126Z,72.34
2023-03-05T09:45:21.120Z,71.34
2023-03-05T09:46:21.814Z,71.52
2023-03-05T09:47:21.058Z,70.58
2023-03-05T09:48:21.098Z,71.70
2023-03-05T09:49:21.109Z,71.30
2023-03-05T09:50:21.072Z,72.33
2023-03-05T09:51:21.046Z,69.07
2023-03-05T09:52:21.032Z,70.60
2023-03-05T09:53:21.040Z,72.22
2023-03-05T09:54:21.020Z,69.09
2023-03-05T09:55:20.999Z,71.27
2023-03-05T09:56:20.919Z,71.13
2023-03-05T09:57:20.930Z,70.85
2023-03-05T09:58:21.025Z,71.76
2023-03-05T09:59:20.952Z,71.71
2023-03-05T10:00:21.032Z,70.86
2023-03-05T10:01:20.920Z,71.26
2023-03-05T10:02:20.882Z,71.13
2023-03-05T10:03:20.940Z,72.13
2023-03-05T10:04:20.997Z,72.16
2023-03-05T10:05:20.882Z,70.60
2023-03-05T10:06:20.932Z,67.58
2023-03-05T10:07:20.877Z,71.63
2023-03-05T10:08:20.800Z,71.33
2023-03-05T10:09:20.892Z,71.76
2023-03-05T10:10:20.865Z,68.32
2023-03-05T10:11:20.845Z,69.34
2023-03-05T10:12:20.832Z,71.14
2023-03-05T10:13:20.800Z,70.20
2023-03-05T10:14:20.794Z,72.24
2023-03-05T10:15:20.757Z,70.61
2023-03-05T10:16:20.793Z,70.44
2023-03-05T10:17:20.752Z,70.90
2023-03-05T10:18:20.709Z,70.78
2023-03-05T10:19:20.687Z,68.95
2023-03-05T10:20:20.767Z,71.78
2023-03-05T10:21:20.714Z,70.52
2023-03-05T10:22:20.725Z,69.24
2023-03-05T10:23:20.710Z,71.31
2023-03-05T10:24:20.614Z,71.00
2023-03-05T10:25:20.620Z,70.85
2023-03-05T10:26:20.635Z,72.29
2023-03-05T10:27:20.717Z,71.50
2023-03-05T10:28:20.644Z,70.39
2023-03-05T10:29:20.572Z,69.96
2023-03-05T10:30:20.585Z,70.68
2023-03-05T10:31:20.658Z,71.05
2023-03-05T10:32:20.780Z,70.67
2023-03-05T10:33:20.670Z,71.60
2023-03-05T10:34:20.543Z,70.43
2023-03-05T10:35:20.577Z,73.04
2023-03-05T10:36:20.518Z,69.20
2023-03-05T10:37:20.546Z,69.40
2023-03-05T10:38:20.548Z,70.81
2023-03-05T10:39:20.446Z,72.59
2023-03-05T10:40:20.466Z,70.73
2023-03-05T10:41:20.468Z,70.89
2023-03-05T10:42:20.454Z,71.63
2023-03-05T10:43:20.429Z,71.85
2023-03-05T10:44:20.569Z,71.44
2023-03-05T10:45:20.414Z,70.19
2023-03-05T10:46:20.415Z,72.69
2023-03-05T10:47:20.601Z,72.48
2023-03-05T10:48:20.398Z,73.61
2023-03-05T10:49:20.462Z,70.96
2023-03-05T10:50:22.007Z,72.02
2023-03-05T10:51:20.401Z,70.30
2023-03-05T10:52:20.358Z,70.64
2023-03-05T10:53:20.476Z,70.26
2023-03-05T10:54:20.375Z,72.19
2023-03-05T10:55:20.325Z,72.55
2023-03-05T10:56:20.313Z,73.39
2023-03-05T10:57:20.318Z,72.58
2023-03-05T10:58:20.280Z,72.25
2023-03-05T10:59:20.322Z,72.35
2023-03-05T11:00:20.308Z,72.85
2023-03-05T11:01:20.241Z,72.88
2023-03-05T11:02:20.931Z,71.54
2023-03-05T11:03:20.175Z,73.44
2023-03-05T11:04:20.229Z,71.94
2023-03-05T11:05:20.208Z,73.23
2023-03-05T11:06:20.199Z,73.08
2023-03-05T11:07:20.175Z,70.43
2023-03-05T11:08:20.159Z,72.43
2023-03-05T11:09:20.214Z,71.87
2023-03-05T11:10:22.715Z,72.46
2023-03-05T11:11:20.136Z,73.08
2023-03-05T11:12:20.130Z,70.86
2023-03-05T11:13:20.166Z,72.14
2023-03-05T11:14:20.144Z,72.11
2023-03-05T11:15:20.914Z,71.76
2023-03-05T11:16:21.149Z,70.06
2023-03-05T11:17:21.070Z,71.97
2023-03-05T11:18:20.111Z,70.92
2023-03-05T11:19:20.080Z,72.03
2023-03-05T11:20:20.071Z,71.59
2023-03-05T11:21:20.012Z,71.31
2023-03-05T11:22:20.016Z,73.39
2023-03-05T11:23:21.038Z,73.67
2023-03-05T11:24:19.960Z,71.11
2023-03-05T11:25:19.996Z,72.61
2023-03-05T11:26:20.029Z,72.83
2023-03-05T11:27:19.977Z,70.87
2023-03-05T11:28:31.960Z,70.45
2023-03-05T11:29:21.984Z,72.57
2023-03-05T11:30:19.976Z,69.82
2023-03-05T11:31:19.955Z,73.04
2023-03-05T11:32:19.928Z,71.57
2023-03-05T11:33:19.908Z,71.89
2023-03-05T11:34:19.864Z,70.87
2023-03-05T11:35:20.948Z,72.01
2023-03-05T11:36:19.941Z,73.21
2023-03-05T11:37:19.860Z,73.69
2023-03-05T11:38:21.644Z,71.47
2023-03-05T11:39:19.810Z,71.12
2023-03-05T11:40:19.852Z,72.04
2023-03-05T11:41:19.779Z,73.70
2023-03-05T11:42:19.810Z,71.87
2023-03-05T11:43:19.808Z,71.95
2023-03-05T11:44:19.836Z,71.08
2023-03-05T11:45:19.743Z,72.52
2023-03-05T11:46:19.810Z,72.43
2023-03-05T11:47:19.737Z,71.35
2023-03-05T11:48:19.779Z,74.26
2023-03-05T11:49:19.763Z,70.69
2023-03-05T11:50:19.683Z,75.08
2023-03-05T11:51:19.695Z,72.27
2023-03-05T11:52:19.659Z,71.69
2023-03-05T11:53:19.744Z,72.19
2023-03-05T11:54:19.836Z,72.56
2023-03-05T11:55:19.639Z,70.63
2023-03-05T11:56:19.650Z,71.16
2023-03-05T11:57:19.650Z,72.55
2023-03-05T11:58:19.718Z,71.93
2023-03-05T11:59:19.668Z,71.01
2023-03-05T12:00:19.640Z,72.74
2023-03-05T12:01:19.578Z,70.39
2023-03-05T12:02:19.833Z,69.73
2023-03-05T12:03:20.626Z,70.14
2023-03-05T12:04:19.585Z,73.02
2023-03-05T12:05:19.564Z,71.30
2023-03-05T12:06:19.535Z,72.06
2023-03-05T12:07:19.544Z,71.46
2023-03-05T12:08:19.515Z,73.01
2023-03-05T12:09:19.491Z,72.57
2023-03-05T12:10:19.532Z,73.13
2023-03-05T12:11:19.478Z,71.67
2023-03-05T12:12:19.644Z,70.08
2023-03-05T12:13:19.483Z,72.21
2023-03-05T12:14:19.445Z,72.15
2023-03-05T12:15:19.400Z,71.54
2023-03-05T12:16:19.482Z,70.55
2023-03-05T12:17:19.384Z,72.38
2023-03-05T12:18:20.034Z,69.39
2023-03-05T12:19:19.884Z,70.27
2023-03-05T12:20:19.720Z,71.00
2023-03-05T12:21:19.549Z,70.31
2023-03-05T12:22:19.360Z,72.89
2023-03-05T12:23:19.406Z,70.52
2023-03-05T12:24:19.310Z,72.92
2023-03-05T12:25:19.321Z,70.66
2023-03-05T12:26:19.367Z,72.88
2023-03-05T12:27:19.321Z,71.84
2023-03-05T12:28:19.280Z,72.72
2023-03-05T12:29:19.299Z,72.77
2023-03-05T12:30:19.309Z,71.42
2023-03-05T12:31:19.283Z,72.65
2023-03-05T12:32:19.236Z,73.03
2023-03-05T12:33:19.225Z,71.44
2023-03-05T12:34:19.269Z,72.82
2023-03-05T12:35:19.394Z,71.95
2023-03-05T12:36:19.195Z,72.03
2023-03-05T12:37:19.190Z,73.51
2023-03-05T12:38:26.846Z,71.48
2023-03-05T12:39:21.170Z,70.90
2023-03-05T12:40:19.159Z,73.25
2023-03-05T12:41:19.174Z,71.92
2023-03-05T12:42:19.118Z,69.40
2023-03-05T12:43:19.098Z,73.15
2023-03-05T12:44:19.125Z,72.01
2023-03-05T12:45:19.146Z,71.72
2023-03-05T12:46:19.174Z,73.67
2023-03-05T12:47:19.044Z,73.36
2023-03-05T12:48:19.060Z,72.38
2023-03-05T12:49:19.133Z,72.81
2023-03-05T12:50:19.075Z,73.75
2023-03-05T12:51:18.982Z,72.47
2023-03-05T12:52:19.020Z,72.95